Time;durP1;ratioP1;P1;durP2;ratioP2;P2;SDS_P1;SDS_P2;PMS_P1;PMS_P2;Temp;Humidity;BMP_temperature;BMP_pressure;BME280_temperature;BME280_humidity;BME280_pressure;Samples;Min_cycle;Max_cycle;Signal;HPM_P1;HPM_P2
2023/09/29 00:01:12;;;;;;;;;;;;;;;11.11;56.74;101248.61;106058;1292;73780;-56
2023/09/29 00:03:59;;;;;;;;;;;;;;;11.08;57.54;101252.60;106001;1292;66604;-56
2023/09/29 00:06:45;;;;;;;;;;;;;;;11.07;57.35;101247.77;105949;1294;70770;-56
2023/09/29 00:09:31;;;;;;;;;;;;;;;11.06;57.74;101245.70;105960;1293;59186;-57
2023/09/29 00:12:17;;;;;;;;;;;;;;;11.05;57.07;101244.33;105959;1295;58634;-57
2023/09/29 00:15:06;;;;;;;;;;;;;;;11.03;57.62;101247.45;105937;1293;72021;-57
2023/09/29 00:17:52;;;;;;;;;;;;;;;11.00;57.54;101248.68;105932;1292;67158;-57
2023/09/29 00:20:37;;;;;;;;;;;;;;;11.00;57.80;101247.14;106092;1292;71406;-56
2023/09/29 00:23:24;;;;;;;;;;;;;;;10.94;57.75;101242.52;106089;1291;58389;-57
2023/09/29 00:26:09;;;;;;;;;;;;;;;10.88;57.99;101243.97;106114;1290;60842;-56
2023/09/29 00:28:56;;;;;;;;;;;;;;;10.84;57.59;101244.86;106031;1292;72421;-56
2023/09/29 00:31:41;;;;;;;;;;;;;;;10.81;57.89;101240.23;106170;1292;67353;-57
2023/09/29 00:34:27;;;;;;;;;;;;;;;10.78;58.12;101238.35;106129;1292;72369;-57
2023/09/29 00:37:14;;;;;;;;;;;;;;;10.73;57.59;101237.00;106097;1292;58353;-56
2023/09/29 00:40:00;;;;;;;;;;;;;;;10.73;57.42;101236.14;106180;1291;58414;-56
2023/09/29 00:42:46;;;;;;;;;;;;;;;10.74;58.31;101236.65;106149;1291;72336;-56
2023/09/29 00:45:33;;;;;;;;;;;;;;;10.73;58.39;101236.32;106160;1292;67529;-57
2023/09/29 00:48:19;;;;;;;;;;;;;;;10.71;57.50;101233.74;106122;1292;71402;-54
2023/09/29 00:51:06;;;;;;;;;;;;;;;10.72;58.62;101234.77;106152;1294;58513;-56
2023/09/29 00:53:52;;;;;;;;;;;;;;;10.74;58.76;101231.31;106135;1292;59319;-57
2023/09/29 00:56:39;;;;;;;;;;;;;;;10.74;58.52;101230.80;106109;1292;71518;-56
2023/09/29 00:59:26;;;;;;;;;;;;;;;10.75;58.76;101227.68;106165;1291;68415;-57
2023/09/29 01:02:17;;;;;;;;;;;;;;;10.75;58.07;101223.38;106138;1292;72649;-56
2023/09/29 01:05:03;;;;;;;;;;;;;;;10.73;57.65;101224.77;106067;1293;59406;-56
2023/09/29 01:07:51;;;;;;;;;;;;;;;10.74;57.90;101222.86;106146;1292;59461;-57
2023/09/29 01:10:37;;;;;;;;;;;;;;;10.75;59.15;101225.61;106107;1292;73531;-55
2023/09/29 01:13:23;;;;;;;;;;;;;;;10.74;58.78;101226.30;106153;1291;68564;-56
2023/09/29 01:16:09;;;;;;;;;;;;;;;10.68;58.82;101225.14;106120;1292;71359;-57
2023/09/29 01:18:55;;;;;;;;;;;;;;;10.60;58.88;101222.43;106122;1292;59495;-56
2023/09/29 01:21:46;;;;;;;;;;;;;;;10.54;59.08;101221.44;106156;1292;60067;-57
2023/09/29 01:24:32;;;;;;;;;;;;;;;10.48;59.33;101219.91;106127;1292;72921;-57
2023/09/29 01:27:18;;;;;;;;;;;;;;;10.47;59.13;101217.69;106184;1291;67426;-57
2023/09/29 01:30:05;;;;;;;;;;;;;;;10.45;59.29;101223.20;106145;1292;71375;-56
2023/09/29 01:32:51;;;;;;;;;;;;;;;10.47;59.70;101218.71;106147;1292;58324;-55
2023/09/29 01:35:39;;;;;;;;;;;;;;;10.46;59.59;101219.75;106192;1292;58126;-57
2023/09/29 01:38:25;;;;;;;;;;;;;;;10.45;59.93;101220.28;106057;1291;73338;-56
2023/09/29 01:41:13;;;;;;;;;;;;;;;10.43;59.74;101221.33;106136;1291;67566;-56
2023/09/29 01:43:59;;;;;;;;;;;;;;;10.43;59.71;101219.25;106063;1292;70813;-55
2023/09/29 01:46:46;;;;;;;;;;;;;;;10.43;60.02;101220.98;106102;1291;58731;-57
2023/09/29 01:49:32;;;;;;;;;;;;;;;10.41;59.57;101216.85;106088;1291;58854;-55
2023/09/29 01:52:18;;;;;;;;;;;;;;;10.41;59.76;101219.27;106036;1292;74013;-56
2023/09/29 01:55:12;;;;;;;;;;;;;;;10.44;59.87;101217.17;106098;1291;66314;-55
2023/09/29 01:57:58;;;;;;;;;;;;;;;10.46;60.25;101211.84;106131;1294;71161;-55
2023/09/29 02:00:46;;;;;;;;;;;;;;;10.46;59.78;101214.41;106073;1291;58241;-55
2023/09/29 02:03:32;;;;;;;;;;;;;;;10.44;59.94;101216.15;106037;1295;58623;-57
2023/09/29 02:06:18;;;;;;;;;;;;;;;10.46;59.55;101218.03;106081;1295;74078;-56
2023/09/29 02:09:07;;;;;;;;;;;;;;;10.46;59.72;101219.76;106053;1291;68621;-56
2023/09/29 02:11:53;;;;;;;;;;;;;;;10.47;59.73;101228.55;106069;1292;71392;-57
2023/09/29 02:14:39;;;;;;;;;;;;;;;10.52;60.44;101230.23;106009;1292;58222;-56
2023/09/29 02:17:25;;;;;;;;;;;;;;;10.58;60.52;101233.98;106084;1292;58755;-56
2023/09/29 02:20:20;;;;;;;;;;;;;;;10.67;60.30;101233.77;105208;1292;73507;-56
2023/09/29 02:23:07;;;;;;;;;;;;;;;10.69;60.94;101230.99;106133;1292;67419;-56
2023/09/29 02:25:52;;;;;;;;;;;;;;;10.69;60.78;101227.72;104984;1292;71335;-56
2023/09/29 02:28:39;;;;;;;;;;;;;;;10.71;61.20;101224.95;104771;1291;60374;-56
2023/09/29 02:31:26;;;;;;;;;;;;;;;10.68;60.68;101225.14;104817;1295;60407;-55
2023/09/29 02:34:15;;;;;;;;;;;;;;;10.59;60.87;101222.95;104707;1298;72453;-55
2023/09/29 02:37:01;;;;;;;;;;;;;;;10.55;60.61;101219.70;104673;1293;67304;-56
2023/09/29 02:39:47;;;;;;;;;;;;;;;10.51;60.68;101219.38;104732;1293;71422;-57
2023/09/29 02:42:33;;;;;;;;;;;;;;;10.52;61.29;101216.79;104767;1292;60362;-56
2023/09/29 02:45:19;;;;;;;;;;;;;;;10.51;61.30;101215.42;104773;1293;60385;-55
2023/09/29 02:48:06;;;;;;;;;;;;;;;10.47;60.75;101212.17;104794;1295;72507;-56
2023/09/29 02:50:52;;;;;;;;;;;;;;;10.40;60.92;101211.36;105381;1292;68216;-56
2023/09/29 02:53:39;;;;;;;;;;;;;;;10.39;60.96;101211.05;104648;1292;71999;-56
2023/09/29 02:56:25;;;;;;;;;;;;;;;10.39;61.12;101211.37;104649;1295;60286;-56
2023/09/29 02:59:12;;;;;;;;;;;;;;;10.38;61.26;101213.63;104694;1292;59163;-55
2023/09/29 03:01:58;;;;;;;;;;;;;;;10.37;61.26;101208.81;104690;1295;75755;-56
2023/09/29 03:04:46;;;;;;;;;;;;;;;10.38;61.84;101207.08;104813;1292;72133;-56
2023/09/29 03:07:34;;;;;;;;;;;;;;;10.39;61.46;101201.21;104518;1295;281191;-56
2023/09/29 03:10:20;;;;;;;;;;;;;;;10.42;61.51;101197.55;104740;1292;61149;-55
2023/09/29 03:13:06;;;;;;;;;;;;;;;10.45;61.67;101195.80;104722;1293;60609;-56
2023/09/29 03:15:52;;;;;;;;;;;;;;;10.48;61.25;101196.65;104722;1292;74583;-56
2023/09/29 03:18:39;;;;;;;;;;;;;;;10.49;61.54;101195.43;104691;1293;68093;-56
2023/09/29 03:21:25;;;;;;;;;;;;;;;10.49;61.91;101191.46;104715;1295;78267;-56
2023/09/29 03:24:11;;;;;;;;;;;;;;;10.50;61.55;101191.45;104688;1292;60493;-56
2023/09/29 03:26:57;;;;;;;;;;;;;;;10.51;61.61;101190.08;104731;1292;60782;-55
2023/09/29 03:29:44;;;;;;;;;;;;;;;10.53;61.95;101189.73;104735;1295;72582;-56
2023/09/29 03:32:31;;;;;;;;;;;;;;;10.54;62.03;101189.36;104807;1293;67293;-55
2023/09/29 03:35:17;;;;;;;;;;;;;;;10.57;62.00;101191.94;104770;1294;71159;-56
2023/09/29 03:38:05;;;;;;;;;;;;;;;10.56;60.99;101196.42;104792;1292;61451;-54
2023/09/29 03:40:52;;;;;;;;;;;;;;;10.43;61.46;101193.92;104767;1293;60613;-55
2023/09/29 03:43:38;;;;;;;;;;;;;;;10.38;61.84;101194.67;104776;1293;73612;-56
2023/09/29 03:46:25;;;;;;;;;;;;;;;10.39;62.16;101191.40;104856;1293;69122;-55
2023/09/29 03:49:11;;;;;;;;;;;;;;;10.39;62.12;101196.02;104711;1295;72369;-56
2023/09/29 03:51:59;;;;;;;;;;;;;;;10.36;62.61;101192.10;104700;1292;62780;-56
2023/09/29 03:54:46;;;;;;;;;;;;;;;10.36;62.19;101188.83;104651;1292;61997;-56
2023/09/29 03:57:32;;;;;;;;;;;;;;;10.33;62.26;101194.36;104830;1292;73365;-56
2023/09/29 04:00:18;;;;;;;;;;;;;;;10.25;62.33;101190.27;104869;1292;67323;-56
2023/09/29 04:03:04;;;;;;;;;;;;;;;10.16;62.38;101191.14;104765;1292;71210;-56
2023/09/29 04:05:50;;;;;;;;;;;;;;;10.07;62.52;101194.27;104832;1293;60764;-56
2023/09/29 04:08:37;;;;;;;;;;;;;;;10.03;62.34;101193.95;104853;1294;60392;-55
2023/09/29 04:11:23;;;;;;;;;;;;;;;10.03;61.80;101191.55;104765;1292;72409;-56
2023/09/29 04:14:09;;;;;;;;;;;;;;;10.01;62.78;101189.48;104833;1291;70056;-56
2023/09/29 04:16:55;;;;;;;;;;;;;;;10.00;62.67;101189.83;104844;1293;73205;-55
2023/09/29 04:19:41;;;;;;;;;;;;;;;9.98;62.41;101187.77;104802;1291;60437;-55
2023/09/29 04:22:28;;;;;;;;;;;;;;;9.95;62.80;101188.81;104756;1292;60693;-56
2023/09/29 04:25:16;;;;;;;;;;;;;;;9.96;62.20;101186.92;104693;1291;614955;-56
2023/09/29 04:28:02;;;;;;;;;;;;;;;9.96;63.76;101187.95;106114;1291;68557;-57
2023/09/29 04:30:48;;;;;;;;;;;;;;;9.97;64.01;101190.88;106115;1292;71092;-56
2023/09/29 04:33:34;;;;;;;;;;;;;;;9.91;62.97;101187.80;106111;1291;58826;-57
2023/09/29 04:36:20;;;;;;;;;;;;;;;9.87;62.32;101189.04;106100;1292;58616;-56
2023/09/29 04:39:05;;;;;;;;;;;;;;;9.83;63.20;101184.94;106129;1291;72659;-55
2023/09/29 04:41:51;;;;;;;;;;;;;;;9.77;63.66;101187.36;106101;1291;68479;-56
2023/09/29 04:44:38;;;;;;;;;;;;;;;9.68;62.99;101179.65;105347;1292;71323;-56
2023/09/29 04:47:24;;;;;;;;;;;;;;;9.61;63.66;101175.88;104832;1294;60332;-57
2023/09/29 04:50:11;;;;;;;;;;;;;;;9.59;63.81;101173.30;104787;1292;60379;-56
2023/09/29 04:52:57;;;;;;;;;;;;;;;9.54;63.69;101167.81;104862;1292;72730;-56
2023/09/29 04:55:43;;;;;;;;;;;;;;;9.49;64.07;101171.09;104856;1294;67128;-57
2023/09/29 04:58:29;;;;;;;;;;;;;;;9.48;63.91;101165.93;104749;1293;75378;-55
2023/09/29 05:01:17;;;;;;;;;;;;;;;9.49;64.09;101171.09;104689;1291;60363;-57
2023/09/29 05:04:03;;;;;;;;;;;;;;;9.54;64.22;101171.60;104770;1291;60479;-57
2023/09/29 05:06:49;;;;;;;;;;;;;;;9.58;63.91;101174.34;106156;1292;72475;-58
2023/09/29 05:09:35;;;;;;;;;;;;;;;9.65;64.49;101168.98;106086;1290;67441;-58
2023/09/29 05:12:21;;;;;;;;;;;;;;;9.70;64.15;101169.66;106145;1291;71383;-57
2023/09/29 05:15:08;;;;;;;;;;;;;;;9.73;64.15;101168.10;106166;1289;58179;-57
2023/09/29 05:17:54;;;;;;;;;;;;;;;9.74;64.31;101168.95;106173;1290;58602;-58
2023/09/29 05:20:42;;;;;;;;;;;;;;;9.78;63.82;101175.31;106202;1290;72591;-58
2023/09/29 05:23:28;;;;;;;;;;;;;;;9.79;63.96;101175.30;106112;1292;68519;-58
2023/09/29 05:26:13;;;;;;;;;;;;;;;9.83;65.23;101179.77;106164;1291;71372;-58
2023/09/29 05:29:00;;;;;;;;;;;;;;;9.92;64.67;101183.66;106145;1292;58293;-58
2023/09/29 05:31:46;;;;;;;;;;;;;;;10.03;64.41;101190.50;106038;1293;59327;-57
2023/09/29 05:34:32;;;;;;;;;;;;;;;10.14;65.26;101198.73;106025;1294;72511;-58
2023/09/29 05:37:18;;;;;;;;;;;;;;;10.23;64.16;101201.13;106055;1291;67273;-56
2023/09/29 05:40:04;;;;;;;;;;;;;;;10.32;64.92;101198.15;105891;1292;72363;-58
2023/09/29 05:42:50;;;;;;;;;;;;;;;10.41;64.03;101200.31;104710;1293;61051;-57
2023/09/29 05:45:37;;;;;;;;;;;;;;;10.47;64.74;101202.34;104737;1296;59115;-57
2023/09/29 05:48:23;;;;;;;;;;;;;;;10.54;64.88;101204.89;104740;1292;72452;-56
2023/09/29 05:51:09;;;;;;;;;;;;;;;10.63;64.75;101209.48;104661;1296;67132;-57
2023/09/29 05:53:55;;;;;;;;;;;;;;;10.78;64.85;101206.29;104750;1293;70220;-56
2023/09/29 05:56:41;;;;;;;;;;;;;;;10.94;65.10;101209.40;104757;1295;60330;-57
2023/09/29 05:59:28;;;;;;;;;;;;;;;11.09;65.32;101214.45;104563;1292;59292;-57
2023/09/29 06:02:14;;;;;;;;;;;;;;;11.22;65.54;101209.34;104694;1290;72350;-56
2023/09/29 06:05:00;;;;;;;;;;;;;;;11.37;65.62;101208.50;104750;1292;67192;-56
2023/09/29 06:07:47;;;;;;;;;;;;;;;11.55;65.03;101211.58;104623;1293;75392;-57
2023/09/29 06:10:33;;;;;;;;;;;;;;;11.71;64.98;101207.09;104631;1294;60414;-57
2023/09/29 06:13:20;;;;;;;;;;;;;;;12.01;65.85;101202.27;104663;1295;62791;-57
2023/09/29 06:16:06;;;;;;;;;;;;;;;12.34;65.57;101197.31;104667;1292;72594;-56
2023/09/29 06:18:52;;;;;;;;;;;;;;;12.52;65.35;101197.05;104628;1296;67205;-54
2023/09/29 06:21:39;;;;;;;;;;;;;;;12.68;65.07;101194.90;104650;1296;71290;-56
2023/09/29 06:24:25;;;;;;;;;;;;;;;12.86;65.66;101195.48;104652;1293;60387;-57
2023/09/29 06:27:11;;;;;;;;;;;;;;;13.06;66.06;101197.36;104684;1294;60214;-57
2023/09/29 06:29:57;;;;;;;;;;;;;;;13.17;65.41;101197.20;104611;1292;72462;-56
2023/09/29 06:32:43;;;;;;;;;;;;;;;13.30;65.57;101195.78;104592;1294;67275;-56
2023/09/29 06:35:29;;;;;;;;;;;;;;;13.42;65.95;101195.75;104620;1293;75432;-56
2023/09/29 06:38:15;;;;;;;;;;;;;;;13.58;65.90;101193.86;104617;1292;61452;-56
2023/09/29 06:41:02;;;;;;;;;;;;;;;13.81;65.78;101193.23;104616;1293;61405;-57
2023/09/29 06:43:48;;;;;;;;;;;;;;;14.06;65.58;101193.56;104804;1294;75311;-57
2023/09/29 06:46:34;;;;;;;;;;;;;;;14.33;66.48;101188.12;104629;1292;67412;-56
2023/09/29 06:49:20;;;;;;;;;;;;;;;14.57;65.76;101193.31;104686;1295;74336;-56
2023/09/29 06:52:06;;;;;;;;;;;;;;;14.78;66.06;101191.41;104760;1291;62328;-56
2023/09/29 06:54:53;;;;;;;;;;;;;;;15.00;65.68;101187.21;104652;1292;59274;-57
2023/09/29 06:57:39;;;;;;;;;;;;;;;15.24;65.74;101184.16;104725;1293;74699;-56
2023/09/29 07:00:25;;;;;;;;;;;;;;;15.51;66.91;101181.69;105993;1291;66433;-57
2023/09/29 07:03:12;;;;;;;;;;;;;;;15.79;66.21;101180.75;106031;1291;72405;-58
2023/09/29 07:05:59;;;;;;;;;;;;;;;16.06;67.32;101186.20;106122;1290;58107;-58
2023/09/29 07:08:45;;;;;;;;;;;;;;;16.37;66.25;101184.89;105018;1291;60352;-56
2023/09/29 07:11:31;;;;;;;;;;;;;;;16.78;65.74;101184.66;104752;1291;72414;-57
2023/09/29 07:14:17;;;;;;;;;;;;;;;17.25;65.49;101179.93;104783;1291;67335;-57
2023/09/29 07:17:03;;;;;;;;;;;;;;;17.66;65.39;101181.80;104669;1292;75315;-57
2023/09/29 07:19:50;;;;;;;;;;;;;;;18.00;64.93;101182.42;104657;1291;60457;-57
2023/09/29 07:22:36;;;;;;;;;;;;;;;18.42;65.01;101179.92;104749;1289;61428;-57
2023/09/29 07:25:23;;;;;;;;;;;;;;;18.94;65.03;101184.45;104678;1291;72321;-56
2023/09/29 07:28:13;;;;;;;;;;;;;;;19.37;64.40;101181.70;104817;1290;68508;-58
2023/09/29 07:30:59;;;;;;;;;;;;;;;19.56;63.25;101177.06;104652;1292;70206;-57
2023/09/29 07:33:45;;;;;;;;;;;;;;;19.84;63.93;101176.66;104619;1295;60872;-57
2023/09/29 07:36:33;;;;;;;;;;;;;;;20.44;64.69;101180.86;104782;1291;61563;-57
2023/09/29 07:39:20;;;;;;;;;;;;;;;20.98;62.91;101184.30;104715;1294;71849;-57
2023/09/29 07:42:06;;;;;;;;;;;;;;;21.26;63.58;101192.87;104699;1292;67697;-57
2023/09/29 07:44:52;;;;;;;;;;;;;;;21.42;63.23;101197.50;104704;1291;71235;-58
2023/09/29 07:47:41;;;;;;;;;;;;;;;21.94;63.78;101203.17;104626;1291;61344;-58
2023/09/29 07:50:28;;;;;;;;;;;;;;;22.17;62.27;101199.80;104651;1294;60488;-59
2023/09/29 07:53:14;;;;;;;;;;;;;;;22.10;61.05;101199.99;104654;1292;72451;-58
2023/09/29 07:56:01;;;;;;;;;;;;;;;22.39;62.93;101196.79;104715;1292;67360;-59
2023/09/29 07:58:47;;;;;;;;;;;;;;;22.69;62.85;101197.36;104694;1292;71273;-57
2023/09/29 08:01:33;;;;;;;;;;;;;;;23.21;62.87;101195.70;104746;1295;60868;-58
2023/09/29 08:04:19;;;;;;;;;;;;;;;23.71;61.95;101185.66;104690;1291;61645;-58
2023/09/29 08:07:07;;;;;;;;;;;;;;;24.33;62.98;101185.77;104731;1292;74285;-58
2023/09/29 08:09:53;;;;;;;;;;;;;;;24.88;62.54;101188.70;104718;1291;68940;-59
2023/09/29 08:12:40;;;;;;;;;;;;;;;25.35;60.52;101187.09;104683;1292;71331;-59
2023/09/29 08:15:25;;;;;;;;;;;;;;;25.33;59.28;101183.69;106080;1291;59328;-59
2023/09/29 08:18:11;;;;;;;;;;;;;;;25.60;60.69;101191.33;106094;1291;58804;-58
2023/09/29 08:20:57;;;;;;;;;;;;;;;25.74;56.95;101186.30;106104;1291;72531;-58
2023/09/29 08:23:43;;;;;;;;;;;;;;;26.01;59.19;101185.94;106048;1291;68836;-60
2023/09/29 08:26:30;;;;;;;;;;;;;;;26.39;60.78;101183.36;106086;1291;71437;-58
2023/09/29 08:29:16;;;;;;;;;;;;;;;27.16;60.70;101185.38;106059;1291;58513;-58
2023/09/29 08:32:02;;;;;;;;;;;;;;;27.49;56.52;101188.98;106064;1291;58921;-59
2023/09/29 08:34:48;;;;;;;;;;;;;;;27.53;57.36;101187.97;106083;1291;73106;-59
2023/09/29 08:37:34;;;;;;;;;;;;;;;27.69;55.92;101187.39;106063;1291;68509;-59
2023/09/29 08:40:20;;;;;;;;;;;;;;;28.31;59.56;101187.02;106051;1291;71228;-59
2023/09/29 08:43:06;;;;;;;;;;;;;;;28.69;55.50;101190.44;106040;1292;58964;-59
2023/09/29 08:45:53;;;;;;;;;;;;;;;28.63;56.73;101184.91;106048;1291;58641;-58
2023/09/29 08:48:40;;;;;;;;;;;;;;;28.88;57.34;101185.69;106097;1291;72379;-59
2023/09/29 08:51:27;;;;;;;;;;;;;;;29.41;56.78;101186.26;106066;1291;67409;-59
2023/09/29 08:54:16;;;;;;;;;;;;;;;29.16;49.24;101186.86;106064;1291;72509;-60
2023/09/29 08:57:05;;;;;;;;;;;;;;;29.10;50.61;101188.27;106094;1291;58207;-60
2023/09/29 08:59:54;;;;;;;;;;;;;;;29.55;53.86;101184.50;106070;1291;58727;-60
2023/09/29 09:02:44;;;;;;;;;;;;;;;29.70;48.45;101179.88;106046;1291;74177;-59
2023/09/29 09:05:30;;;;;;;;;;;;;;;30.08;50.79;101179.86;106112;1291;67150;-60
2023/09/29 09:08:16;;;;;;;;;;;;;;;30.35;50.98;101175.78;106096;1291;71266;-60
2023/09/29 09:11:02;;;;;;;;;;;;;;;30.71;49.86;101168.23;106129;1290;57503;-59
2023/09/29 09:13:58;;;;;;;;;;;;;;;30.44;46.87;101163.95;106090;1292;58837;-59
2023/09/29 09:16:45;;;;;;;;;;;;;;;30.70;49.69;101158.55;106084;1291;73334;-59
2023/09/29 09:19:31;;;;;;;;;;;;;;;31.04;45.85;101162.34;106094;1292;68629;-59
2023/09/29 09:22:31;;;;;;;;;;;;;;;31.46;47.67;101157.98;106066;1291;71418;-58
2023/09/29 09:25:17;;;;;;;;;;;;;;;31.88;48.26;101152.88;106085;1291;58159;-59
2023/09/29 09:28:03;;;;;;;;;;;;;;;31.92;43.29;101151.38;105734;1292;59503;-59
2023/09/29 09:31:01;;;;;;;;;;;;;;;31.70;41.72;101151.20;105634;1291;72415;-59
2023/09/29 09:33:48;;;;;;;;;;;;;;;30.78;39.78;101153.76;104842;1293;67902;-58
2023/09/29 09:36:43;;;;;;;;;;;;;;;30.78;42.00;101153.16;104830;1294;71434;-59
2023/09/29 09:39:30;;;;;;;;;;;;;;;31.48;41.26;101150.44;104890;1292;61996;-58
2023/09/29 09:42:17;;;;;;;;;;;;;;;32.00;42.52;101144.04;104897;1291;64387;-58
2023/09/29 09:45:04;;;;;;;;;;;;;;;33.09;44.01;101142.61;104864;1289;72367;-58
2023/09/29 09:47:51;;;;;;;;;;;;;;;33.67;41.10;101148.56;104915;1291;67101;-59
2023/09/29 09:50:41;;;;;;;;;;;;;;;33.31;38.62;101149.25;105403;1290;71432;-57
2023/09/29 09:53:30;;;;;;;;;;;;;;;32.81;37.76;101142.31;104831;1292;60370;-58
2023/09/29 09:56:21;;;;;;;;;;;;;;;32.35;36.57;101144.62;105015;1292;60651;-58
2023/09/29 09:59:08;;;;;;;;;;;;;;;32.06;37.42;101139.30;104890;1294;72754;-59
2023/09/29 10:01:55;;;;;;;;;;;;;;;32.33;36.73;101138.81;104859;1292;67401;-59
2023/09/29 10:04:43;;;;;;;;;;;;;;;32.80;36.73;101133.14;104873;1292;71342;-59
2023/09/29 10:07:29;;;;;;;;;;;;;;;32.87;38.03;101126.88;104888;1291;60571;-59
2023/09/29 10:10:35;;;;;;;;;;;;;;;33.32;35.08;101131.00;104893;1292;60293;-59
2023/09/29 10:13:21;;;;;;;;;;;;;;;32.97;35.63;101129.80;104899;1290;73264;-59
2023/09/29 10:16:07;;;;;;;;;;;;;;;33.19;35.79;101125.30;104920;1291;67302;-59
2023/09/29 10:18:58;;;;;;;;;;;;;;;33.68;36.89;101127.38;104926;1291;73968;-59
2023/09/29 10:21:46;;;;;;;;;;;;;;;34.25;34.64;101131.96;104841;1294;62043;-59
2023/09/29 10:24:32;;;;;;;;;;;;;;;34.17;34.50;101129.26;104885;1292;62672;-59
2023/09/29 10:27:27;;;;;;;;;;;;;;;33.88;32.76;101136.42;104895;1292;72457;-61
2023/09/29 10:30:16;;;;;;;;;;;;;;;33.85;34.88;101129.48;104860;1291;69329;-59
2023/09/29 10:33:06;;;;;;;;;;;;;;;34.36;34.00;101131.45;104875;1291;71254;-59
2023/09/29 10:35:53;;;;;;;;;;;;;;;34.03;32.52;101126.31;104849;1291;60405;-58
2023/09/29 10:38:40;;;;;;;;;;;;;;;33.58;32.73;101123.61;104863;1291;60482;-58
2023/09/29 10:41:29;;;;;;;;;;;;;;;33.30;32.83;101121.67;104880;1291;74786;-57
2023/09/29 10:44:15;;;;;;;;;;;;;;;33.74;33.61;101122.16;104917;1291;68556;-59
2023/09/29 10:47:01;;;;;;;;;;;;;;;34.53;33.42;101118.83;104847;1294;71963;-58
2023/09/29 10:49:48;;;;;;;;;;;;;;;35.14;33.12;101116.02;104879;1291;60434;-59
2023/09/29 10:52:34;;;;;;;;;;;;;;;35.54;33.06;101113.73;104861;1292;61322;-59
2023/09/29 10:55:21;;;;;;;;;;;;;;;35.86;32.24;101116.40;104917;1291;74121;-58
2023/09/29 10:58:07;;;;;;;;;;;;;;;35.78;31.19;101118.55;104878;1292;71405;-58
2023/09/29 11:00:53;;;;;;;;;;;;;;;36.01;31.55;101112.52;104857;1291;71373;-61
2023/09/29 11:03:40;;;;;;;;;;;;;;;36.11;31.86;101108.32;104861;1292;60461;-61
2023/09/29 11:06:26;;;;;;;;;;;;;;;36.48;32.43;101105.35;104863;1292;60845;-61
2023/09/29 11:09:16;;;;;;;;;;;;;;;36.60;29.99;101104.63;104820;1292;72473;-61
2023/09/29 11:12:03;;;;;;;;;;;;;;;35.80;30.04;101099.38;104868;1292;66600;-61
2023/09/29 11:14:49;;;;;;;;;;;;;;;35.48;29.49;101096.55;106047;1292;71163;-61
2023/09/29 11:17:48;;;;;;;;;;;;;;;34.82;30.14;101095.39;104901;1291;61184;-61
2023/09/29 11:20:34;;;;;;;;;;;;;;;34.31;29.79;101096.55;104901;1292;61510;-61
2023/09/29 11:23:21;;;;;;;;;;;;;;;34.07;30.90;101092.16;104877;1294;73294;-61
2023/09/29 11:26:09;;;;;;;;;;;;;;;34.23;30.79;101088.67;104880;1292;67235;-62
2023/09/29 11:28:55;;;;;;;;;;;;;;;33.86;29.80;101086.41;104825;1294;72969;-59
2023/09/29 11:31:42;;;;;;;;;;;;;;;32.95;30.39;101079.92;104918;1291;60774;-59
2023/09/29 11:34:29;;;;;;;;;;;;;;;32.38;30.73;101078.83;104837;1294;60344;-59
2023/09/29 11:37:16;;;;;;;;;;;;;;;32.10;31.49;101077.48;104874;1292;73319;-58
2023/09/29 11:40:11;;;;;;;;;;;;;;;32.24;31.34;101074.23;106207;1291;67257;-59
2023/09/29 11:42:57;;;;;;;;;;;;;;;32.57;31.42;101076.73;106185;1291;71434;-60
2023/09/29 11:45:43;;;;;;;;;;;;;;;32.51;31.81;101075.33;106179;1291;58309;-60
2023/09/29 11:48:28;;;;;;;;;;;;;;;32.52;31.54;101074.13;106079;1291;60486;-58
2023/09/29 11:51:14;;;;;;;;;;;;;;;31.95;31.36;101072.28;104917;1290;72512;-59
2023/09/29 11:54:01;;;;;;;;;;;;;;;31.03;31.73;101072.84;104788;1292;67988;-59
2023/09/29 11:56:47;;;;;;;;;;;;;;;30.47;32.29;101076.66;104760;1292;72600;-59
2023/09/29 11:59:33;;;;;;;;;;;;;;;30.62;32.94;101069.77;104783;1292;60524;-59
2023/09/29 12:02:22;;;;;;;;;;;;;;;30.77;32.76;101072.23;104865;1292;60581;-59
2023/09/29 12:05:09;;;;;;;;;;;;;;;31.09;32.76;101069.23;104865;1292;72450;-57
2023/09/29 12:07:55;;;;;;;;;;;;;;;31.31;32.88;101063.42;106188;1291;69436;-59
2023/09/29 12:10:41;;;;;;;;;;;;;;;31.87;32.68;101057.88;106148;1290;72353;-60
2023/09/29 12:13:26;;;;;;;;;;;;;;;31.91;32.59;101054.84;106129;1290;58246;-59
2023/09/29 12:16:12;;;;;;;;;;;;;;;31.52;32.67;101048.30;106194;1291;58766;-60
2023/09/29 12:18:58;;;;;;;;;;;;;;;31.30;33.11;101048.18;106153;1290;72335;-60
2023/09/29 12:21:44;;;;;;;;;;;;;;;31.49;33.12;101049.19;106148;1290;70200;-59
2023/09/29 12:24:30;;;;;;;;;;;;;;;31.45;33.10;101043.48;106152;1291;71190;-60
2023/09/29 12:27:15;;;;;;;;;;;;;;;31.20;32.93;101046.50;106136;1290;57641;-59
2023/09/29 12:30:02;;;;;;;;;;;;;;;30.98;33.28;101047.49;106180;1290;58642;-60
2023/09/29 12:32:48;;;;;;;;;;;;;;;30.67;33.34;101042.61;106151;1291;73758;-59
2023/09/29 12:35:33;;;;;;;;;;;;;;;30.58;33.36;101046.13;106141;1290;67457;-59
2023/09/29 12:38:19;;;;;;;;;;;;;;;30.47;33.58;101052.19;106143;1290;71272;-59
2023/09/29 12:41:05;;;;;;;;;;;;;;;30.43;33.55;101050.20;106175;1291;58171;-59
2023/09/29 12:43:51;;;;;;;;;;;;;;;30.21;33.75;101049.06;106191;1291;59918;-56
2023/09/29 12:46:38;;;;;;;;;;;;;;;29.74;33.67;101052.73;106058;1291;72289;-58
2023/09/29 12:49:24;;;;;;;;;;;;;;;29.19;34.04;101050.89;104855;1291;69424;-59
2023/09/29 12:52:11;;;;;;;;;;;;;;;28.89;34.83;101050.14;104758;1292;73140;-59
2023/09/29 12:54:57;;;;;;;;;;;;;;;28.70;34.79;101052.30;104862;1292;61232;-58
2023/09/29 12:57:43;;;;;;;;;;;;;;;28.66;35.00;101047.29;104833;1291;60456;-58
2023/09/29 13:00:29;;;;;;;;;;;;;;;28.66;34.92;101050.70;104689;1292;74329;-60
2023/09/29 13:03:15;;;;;;;;;;;;;;;28.57;35.56;101053.48;104767;1292;68290;-58
2023/09/29 13:06:03;;;;;;;;;;;;;;;28.47;35.61;101047.27;104861;1291;72129;-59
2023/09/29 13:08:49;;;;;;;;;;;;;;;28.36;35.62;101049.73;104815;1291;60382;-58
2023/09/29 13:11:35;;;;;;;;;;;;;;;28.29;35.86;101052.76;104857;1291;60466;-59
2023/09/29 13:14:22;;;;;;;;;;;;;;;28.10;36.25;101053.81;104807;1292;72852;-59
2023/09/29 13:17:09;;;;;;;;;;;;;;;27.94;36.64;101053.92;104883;1291;67394;-58
2023/09/29 13:19:55;;;;;;;;;;;;;;;27.69;36.61;101055.44;104847;1294;72845;-58
2023/09/29 13:22:41;;;;;;;;;;;;;;;27.45;37.69;101049.60;104824;1292;60452;-58
2023/09/29 13:25:28;;;;;;;;;;;;;;;27.21;38.49;101052.23;104893;1291;60810;-59
2023/09/29 13:28:14;;;;;;;;;;;;;;;27.12;37.44;101051.16;104878;1291;72486;-58
2023/09/29 13:31:01;;;;;;;;;;;;;;;27.04;37.49;101042.20;104838;1291;69068;-59
2023/09/29 13:33:47;;;;;;;;;;;;;;;27.01;37.81;101039.08;104873;1291;73324;-58
2023/09/29 13:36:35;;;;;;;;;;;;;;;26.92;39.49;101037.65;104885;1294;60376;-59
2023/09/29 13:39:21;;;;;;;;;;;;;;;26.74;39.25;101037.46;104758;1292;61473;-57
2023/09/29 13:42:07;;;;;;;;;;;;;;;26.57;39.96;101036.33;104880;1291;72477;-58
2023/09/29 13:44:55;;;;;;;;;;;;;;;26.40;39.68;101039.55;104882;1291;67256;-59
2023/09/29 13:47:41;;;;;;;;;;;;;;;26.24;39.37;101036.48;104824;1292;71173;-58
2023/09/29 13:50:29;;;;;;;;;;;;;;;26.15;40.03;101037.57;104867;1292;61107;-58
2023/09/29 13:53:15;;;;;;;;;;;;;;;26.01;40.36;101037.18;104844;1292;61843;-58
2023/09/29 13:56:07;;;;;;;;;;;;;;;25.89;40.02;101039.52;104799;1295;76511;-58
2023/09/29 13:58:54;;;;;;;;;;;;;;;25.76;40.60;101033.91;104775;1292;67885;-58
2023/09/29 14:01:41;;;;;;;;;;;;;;;25.66;40.47;101033.88;104804;1292;71195;-58
2023/09/29 14:04:27;;;;;;;;;;;;;;;25.59;40.85;101033.50;106040;1291;58373;-59
2023/09/29 14:07:13;;;;;;;;;;;;;;;25.55;40.31;101030.79;106144;1290;59312;-59